createdAt,value
2023-03-04T00:01:31.642Z,100039.98
2023-03-04T00:03:59.722Z,100037.09
2023-03-04T00:06:28.091Z,100040.19
2023-03-04T00:08:56.343Z,100038.98
2023-03-04T00:11:25.009Z,100037.65
2023-03-04T00:13:53.276Z,100028.85
2023-03-04T00:16:21.418Z,100030.69
2023-03-04T00:18:49.295Z,100031.66
2023-03-04T00:21:17.231Z,100034.13
2023-03-04T00:23:45.331Z,100029.02
2023-03-04T00:26:13.708Z,100028.65
2023-03-04T00:28:43.438Z,100023.56
2023-03-04T00:31:12.264Z,100017.51
2023-03-04T00:33:40.579Z,100020.17
2023-03-04T00:36:08.695Z,100015.73
2023-03-04T00:38:36.975Z,100008.09
2023-03-04T00:41:05.208Z,100002.41
2023-03-04T00:43:33.237Z,100001.85
2023-03-04T00:46:01.330Z,99995.45
2023-03-04T00:48:31.170Z,99990.04
2023-03-04T00:50:59.219Z,99985.86
2023-03-04T00:53:27.366Z,99974.30
2023-03-04T00:55:55.388Z,99974.38
2023-03-04T00:58:23.289Z,99977.20
2023-03-04T01:00:51.385Z,99979.20
2023-03-04T01:03:19.806Z,99971.02
2023-03-04T01:05:47.788Z,99965.44
2023-03-04T01:08:15.814Z,99954.41
2023-03-04T01:10:44.892Z,99960.89
2023-03-04T01:13:13.494Z,99949.73
2023-03-04T01:15:41.562Z,99957.52
2023-03-04T01:18:10.015Z,99943.02
2023-03-04T01:20:38.227Z,99947.91
2023-03-04T01:23:06.265Z,99942.16
2023-03-04T01:25:34.464Z,99943.93
2023-03-04T01:28:02.589Z,99930.85
2023-03-04T01:30:30.736Z,99941.52
2023-03-04T01:32:58.829Z,99938.23
2023-03-04T01:35:26.851Z,99930.95
2023-03-04T01:37:54.947Z,99928.98
2023-03-04T01:40:22.939Z,99913.80
2023-03-04T01:42:51.116Z,99901.28
2023-03-04T01:45:20.347Z,99909.26
2023-03-04T01:47:50.048Z,99904.36
2023-03-04T01:50:23.117Z,99887.32
2023-03-04T01:52:51.296Z,99864.75
2023-03-04T01:55:21.729Z,99835.46
2023-03-04T01:57:51.845Z,99832.84
2023-03-04T02:00:27.954Z,99823.51
2023-03-04T02:03:24.776Z,99817.31
2023-03-04T02:05:53.925Z,99807.44
2023-03-04T02:08:24.879Z,99797.88
2023-03-04T02:10:54.265Z,99801.61
2023-03-04T02:13:23.407Z,99804.28
2023-03-04T02:15:53.130Z,99803.13
2023-03-04T02:18:23.990Z,99795.89
2023-03-04T02:21:19.857Z,99786.10
2023-03-04T02:24:06.514Z,99784.28
2023-03-04T02:26:39.961Z,99773.56
2023-03-04T02:29:10.823Z,99752.84
2023-03-04T02:31:43.287Z,99750.70
2023-03-04T02:34:17.441Z,99750.56
2023-03-04T02:36:46.907Z,99748.52
2023-03-04T02:39:22.137Z,99738.73
2023-03-04T02:41:54.407Z,99747.83
2023-03-04T02:44:29.112Z,99746.48
2023-03-04T02:46:59.229Z,99750.69
2023-03-04T02:49:29.559Z,99747.39
2023-03-04T02:52:01.751Z,99751.83
2023-03-04T02:54:30.073Z,99760.80
2023-03-04T02:57:01.518Z,99765.48
2023-03-04T02:59:30.459Z,99762.90
2023-03-04T03:01:58.990Z,99759.33
2023-03-04T03:04:27.825Z,99763.30
2023-03-04T03:06:56.174Z,99765.86
2023-03-04T03:09:24.225Z,99768.81
2023-03-04T03:11:52.268Z,99761.56
2023-03-04T03:14:21.104Z,99762.44
2023-03-04T03:16:49.150Z,99763.66
2023-03-04T03:19:17.128Z,99750.64
2023-03-04T03:21:45.079Z,99752.02
2023-03-04T03:24:13.214Z,99757.73
2023-03-04T03:26:45.559Z,99756.54
2023-03-04T03:29:13.730Z,99756.06
2023-03-04T03:31:41.822Z,99753.55
2023-03-04T03:34:09.987Z,99748.86
2023-03-04T03:36:38.168Z,99749.38
2023-03-04T03:39:06.337Z,99747.56
2023-03-04T03:41:34.657Z,99740.80
2023-03-04T03:44:02.824Z,99736.11
2023-03-04T03:46:30.884Z,99733.13
2023-03-04T03:48:58.916Z,99728.70
2023-03-04T03:51:26.917Z,99726.05
2023-03-04T03:53:54.810Z,99729.16
2023-03-04T03:56:22.700Z,99734.30
2023-03-04T03:58:50.866Z,99726.02
2023-03-04T04:05:24.947Z,99730.70
2023-03-04T04:07:54.175Z,99730.26
2023-03-04T04:10:22.179Z,99731.93
2023-03-04T04:12:50.226Z,99734.00
2023-03-04T04:15:19.325Z,99734.38
2023-03-04T04:17:47.288Z,99728.93
2023-03-04T04:20:15.482Z,99722.20
2023-03-04T04:22:43.962Z,99720.00
2023-03-04T04:25:11.930Z,99721.40
2023-03-04T04:27:39.965Z,99721.36
2023-03-04T04:34:34.821Z,99716.90
2023-03-04T04:37:02.819Z,99716.46
2023-03-04T04:39:30.767Z,99722.44
2023-03-04T04:41:58.662Z,99713.27
2023-03-04T04:44:27.415Z,99717.27
2023-03-04T04:46:55.548Z,99715.23
2023-03-04T04:49:23.542Z,99711.66
2023-03-04T04:51:51.504Z,99708.22
2023-03-04T04:54:19.536Z,99708.77
2023-03-04T04:56:47.512Z,99706.43
2023-03-04T04:59:15.954Z,99706.41
2023-03-04T05:01:44.019Z,99704.89
2023-03-04T05:04:11.941Z,99700.11
2023-03-04T05:06:40.009Z,99703.58
2023-03-04T05:09:07.940Z,99700.83
2023-03-04T05:11:36.007Z,99704.10
2023-03-04T05:14:03.978Z,99704.42
2023-03-04T05:16:32.297Z,99703.30
2023-03-04T05:19:00.877Z,99700.79
2023-03-04T05:21:28.947Z,99700.13
2023-03-04T05:23:56.913Z,99700.63
2023-03-04T05:26:24.791Z,99699.23
2023-03-04T05:28:53.399Z,99696.53
2023-03-04T05:31:21.518Z,99696.96
2023-03-04T05:33:49.478Z,99693.09
2023-03-04T05:36:17.487Z,99689.88
2023-03-04T05:38:45.540Z,99687.17
2023-03-04T05:41:13.551Z,99694.35
2023-03-04T05:43:42.952Z,99694.52
2023-03-04T05:46:15.810Z,99688.05
2023-03-04T05:48:44.869Z,99690.67
2023-03-04T05:51:12.735Z,99692.34
2023-03-04T05:53:41.596Z,99692.20
2023-03-04T05:56:11.611Z,99692.75
2023-03-04T05:58:40.933Z,99691.70
2023-03-04T06:01:09.918Z,99679.17
2023-03-04T06:03:38.086Z,99683.16
2023-03-04T06:06:06.244Z,99678.05
2023-03-04T06:08:35.796Z,99680.78
2023-03-04T06:11:05.692Z,99678.92
2023-03-04T06:13:34.845Z,99674.73
2023-03-04T06:16:02.836Z,99678.31
2023-03-04T06:18:30.937Z,99673.67
2023-03-04T06:21:00.791Z,99669.30
2023-03-04T06:23:30.151Z,99667.77
2023-03-04T06:26:00.115Z,99665.27
2023-03-04T06:28:28.885Z,99661.68
2023-03-04T06:30:57.802Z,99660.98
2023-03-04T06:33:26.534Z,99667.45
2023-03-04T06:35:56.404Z,99668.48
2023-03-04T06:38:25.972Z,99669.36
2023-03-04T06:40:57.209Z,99665.34
2023-03-04T06:43:25.542Z,99661.24
2023-03-04T06:45:53.855Z,99659.08
2023-03-04T06:48:21.898Z,99656.56
2023-03-04T06:50:49.907Z,99665.46
2023-03-04T06:53:17.824Z,99659.79
2023-03-04T06:55:46.479Z,99661.89
2023-03-04T06:58:14.770Z,99665.64
2023-03-04T07:00:42.755Z,99662.40
2023-03-04T07:03:13.599Z,99665.98
2023-03-04T07:05:42.948Z,99666.50
2023-03-04T07:08:10.831Z,99664.87
2023-03-04T07:10:39.296Z,99671.53
2023-03-04T07:13:07.397Z,99671.02
2023-03-04T07:15:36.291Z,99671.89
2023-03-04T07:18:04.312Z,99667.30
2023-03-04T07:20:32.605Z,99669.91
2023-03-04T07:23:00.526Z,99666.58
2023-03-04T07:25:28.496Z,99663.50
2023-03-04T07:27:56.457Z,99663.88
2023-03-04T07:30:24.291Z,99661.03
2023-03-04T07:32:52.427Z,99664.09
2023-03-04T07:35:20.491Z,99662.61
2023-03-04T07:37:48.553Z,99655.69
2023-03-04T07:40:16.978Z,99649.02
2023-03-04T07:42:49.905Z,99648.33
2023-03-04T07:45:18.380Z,99641.03
2023-03-04T07:47:46.581Z,99642.23
2023-03-04T07:50:17.547Z,99641.58
2023-03-04T07:52:48.189Z,99642.66
2023-03-04T07:55:17.232Z,99630.91
2023-03-04T07:57:48.313Z,99634.15
2023-03-04T08:00:17.705Z,99638.23
2023-03-04T08:02:45.683Z,99629.55
2023-03-04T08:05:14.205Z,99630.73
2023-03-04T08:07:42.232Z,99635.91
2023-03-04T08:10:10.969Z,99637.13
2023-03-04T08:12:40.653Z,99630.78
2023-03-04T08:15:09.080Z,99635.04
2023-03-04T08:17:38.228Z,99634.73
2023-03-04T08:20:06.776Z,99636.29
2023-03-04T08:22:34.927Z,99636.49
2023-03-04T08:25:03.996Z,99629.36
2023-03-04T08:27:31.917Z,99628.24
2023-03-04T08:29:59.898Z,99625.48
2023-03-04T08:32:28.706Z,99622.70
2023-03-04T08:34:57.066Z,99618.45
2023-03-04T08:37:25.128Z,99615.91
2023-03-04T08:39:53.098Z,99615.77
2023-03-04T08:42:21.138Z,99617.06
2023-03-04T08:44:49.329Z,99612.79
2023-03-04T08:47:17.306Z,99609.81
2023-03-04T08:49:45.231Z,99611.65
2023-03-04T08:52:13.310Z,99607.44
2023-03-04T08:54:41.443Z,99611.66
2023-03-04T08:57:09.363Z,99610.70
2023-03-04T08:59:38.577Z,99609.20
2023-03-04T09:02:07.113Z,99605.35
2023-03-04T09:04:35.472Z,99609.25
2023-03-04T09:07:04.264Z,99609.27
2023-03-04T09:09:32.173Z,99608.14
2023-03-04T09:12:00.126Z,99605.48
2023-03-04T09:14:28.813Z,99604.10
2023-03-04T09:16:56.789Z,99601.68
2023-03-04T09:19:24.790Z,99597.80
2023-03-04T09:21:52.681Z,99593.23
2023-03-04T09:24:20.467Z,99593.36
2023-03-04T09:26:52.286Z,99590.74
2023-03-04T09:29:21.147Z,99584.30
2023-03-04T09:31:49.052Z,99583.83
2023-03-04T09:34:16.962Z,99583.60
2023-03-04T09:36:44.987Z,99573.83
2023-03-04T09:39:12.806Z,99571.60
2023-03-04T09:41:44.735Z,99569.47
2023-03-04T09:44:43.585Z,99565.30
2023-03-04T09:47:14.859Z,99559.70
2023-03-04T09:49:45.805Z,99550.19
2023-03-04T09:52:58.442Z,99547.26
2023-03-04T09:55:33.983Z,99546.14
2023-03-04T09:58:17.151Z,99545.99
2023-03-04T10:00:52.150Z,99544.78
2023-03-04T10:03:24.689Z,99532.13
2023-03-04T10:06:06.208Z,99525.33
2023-03-04T10:08:42.545Z,99522.13
2023-03-04T10:11:24.836Z,99513.33
2023-03-04T10:14:11.688Z,99513.90
2023-03-04T10:16:51.890Z,99517.38
2023-03-04T10:19:46.968Z,99513.76
2023-03-04T10:22:21.013Z,99512.64
2023-03-04T10:24:49.405Z,99501.04
2023-03-04T10:27:19.808Z,99501.58
2023-03-04T10:29:49.108Z,99504.26
2023-03-04T10:32:19.672Z,99504.78
2023-03-04T10:34:47.782Z,99502.55
2023-03-04T10:37:15.795Z,99502.40
2023-03-04T10:39:45.996Z,99492.80
2023-03-04T10:42:13.879Z,99499.79
2023-03-04T10:44:44.905Z,99491.98
2023-03-04T10:47:14.283Z,99473.88
2023-03-04T10:49:54.166Z,99475.27
2023-03-04T10:52:32.504Z,99473.95
2023-03-04T10:55:29.915Z,99476.30
2023-03-04T10:58:04.982Z,99474.58
2023-03-04T11:04:36.303Z,99470.05
2023-03-04T11:07:10.689Z,99468.38
2023-03-04T11:09:40.265Z,99463.56
2023-03-04T11:12:17.218Z,99468.29
2023-03-04T11:14:50.951Z,99475.66
2023-03-04T11:17:25.221Z,99466.89
2023-03-04T11:20:21.011Z,99466.24
2023-03-04T11:22:51.063Z,99469.77
2023-03-04T11:25:27.745Z,99461.73
2023-03-04T11:28:00.200Z,99454.73
2023-03-04T11:30:42.893Z,99458.67
2023-03-04T11:33:17.119Z,99458.10
2023-03-04T11:36:04.125Z,99458.91
2023-03-04T11:38:39.320Z,99451.59
2023-03-04T11:41:19.325Z,99450.59
2023-03-04T11:43:47.407Z,99450.59
2023-03-04T11:46:46.151Z,99449.52
2023-03-04T11:49:32.910Z,99448.53
2023-03-04T11:52:29.569Z,99449.64
2023-03-04T11:55:28.318Z,99448.91
2023-03-04T11:58:04.066Z,99445.77
2023-03-04T12:00:38.228Z,99437.02
2023-03-04T12:03:39.673Z,99441.25
2023-03-04T12:06:30.194Z,99442.91
2023-03-04T12:09:18.168Z,99434.95
2023-03-04T12:12:25.189Z,99424.98
2023-03-04T12:15:15.089Z,99427.37
2023-03-04T12:17:57.879Z,99426.59
2023-03-04T12:20:42.146Z,99420.82
2023-03-04T12:23:28.203Z,99421.40
2023-03-04T12:26:06.315Z,99421.73
2023-03-04T12:28:54.970Z,99412.39
2023-03-04T12:31:42.521Z,99425.00
2023-03-04T12:34:22.479Z,99417.04
2023-03-04T12:37:13.185Z,99412.55
2023-03-04T12:39:58.813Z,99414.55
2023-03-04T12:43:01.036Z,99408.73
2023-03-04T12:45:28.916Z,99406.30
2023-03-04T12:48:24.161Z,99415.02
2023-03-04T12:51:09.712Z,99430.52
2023-03-04T12:54:06.536Z,99433.48
2023-03-04T12:56:44.857Z,99431.77
2023-03-04T12:59:18.773Z,99443.84
2023-03-04T13:01:56.430Z,99448.85
2023-03-04T13:04:29.637Z,99443.48
2023-03-04T13:06:57.650Z,99440.91
2023-03-04T13:09:31.997Z,99439.81
2023-03-04T13:12:16.002Z,99430.54
2023-03-04T13:15:08.824Z,99431.34
2023-03-04T13:17:44.071Z,99426.69
2023-03-04T13:20:23.324Z,99430.91
2023-03-04T13:22:59.716Z,99432.89
2023-03-04T13:25:27.733Z,99432.23
2023-03-04T13:28:11.043Z,99435.13
2023-03-04T13:30:39.071Z,99424.79
2023-03-04T13:33:16.095Z,99420.72
2023-03-04T13:35:47.055Z,99421.83
2023-03-04T13:38:21.294Z,99428.81
2023-03-04T13:41:07.508Z,99427.20
2023-03-04T13:43:46.554Z,99425.05
2023-03-04T13:46:20.816Z,99426.66
2023-03-04T13:48:52.004Z,99430.13
2023-03-04T13:51:49.015Z,99432.69
2023-03-04T13:54:29.118Z,99426.84
2023-03-04T13:57:00.422Z,99427.02
2023-03-04T13:59:50.497Z,99425.36
2023-03-04T14:02:22.820Z,99419.82
2023-03-04T14:04:53.706Z,99415.15
2023-03-04T14:07:32.201Z,99414.44
2023-03-04T14:10:11.979Z,99416.77
2023-03-04T14:13:06.476Z,99419.99
2023-03-04T14:15:35.426Z,99420.34
2023-03-04T14:18:05.805Z,99426.11
2023-03-04T14:20:36.964Z,99419.48
2023-03-04T14:23:36.267Z,99414.20
2023-03-04T14:26:15.766Z,99412.87
2023-03-04T14:28:52.877Z,99411.84
2023-03-04T14:31:24.246Z,99411.64
2023-03-04T14:33:59.901Z,99408.41
2023-03-04T14:36:35.872Z,99415.89
2023-03-04T14:39:06.862Z,99417.01
2023-03-04T14:41:39.437Z,99419.54
2023-03-04T14:44:11.695Z,99419.36
2023-03-04T14:46:56.881Z,99419.52
2023-03-04T14:49:35.755Z,99429.19
2023-03-04T14:52:05.066Z,99427.61
2023-03-04T14:54:38.293Z,99428.60
2023-03-04T14:57:26.522Z,99431.14
2023-03-04T14:59:54.851Z,99429.52
2023-03-04T15:02:33.789Z,99428.95
2023-03-04T15:05:16.894Z,99429.11
2023-03-04T15:07:51.962Z,99427.21
2023-03-04T15:10:24.650Z,99427.94
2023-03-04T15:12:55.524Z,99429.73
2023-03-04T15:15:33.076Z,99437.48
2023-03-04T15:18:26.473Z,99442.78
2023-03-04T15:21:00.932Z,99442.27
2023-03-04T15:23:31.495Z,99446.27
2023-03-04T15:26:02.529Z,99451.10
2023-03-04T15:28:36.509Z,99454.62
2023-03-04T15:31:05.967Z,99455.56
2023-03-04T15:33:34.307Z,99464.20
2023-03-04T15:36:03.444Z,99460.68
2023-03-04T15:38:31.777Z,99461.96
2023-03-04T15:40:59.940Z,99469.23
2023-03-04T15:43:28.022Z,99472.90
2023-03-04T15:45:56.013Z,99470.17
2023-03-04T15:48:24.076Z,99480.95
2023-03-04T15:50:58.191Z,99490.51
2023-03-04T15:53:32.870Z,99499.34
2023-03-04T15:56:02.218Z,99509.83
2023-03-04T15:58:34.884Z,99520.59
2023-03-04T16:01:03.890Z,99522.89
2023-03-04T16:03:32.359Z,99535.52
2023-03-04T16:06:00.438Z,99534.98
2023-03-04T16:08:29.065Z,99540.66
2023-03-04T16:10:57.229Z,99546.46
2023-03-04T16:13:25.290Z,99555.78
2023-03-04T16:15:53.457Z,99562.64
2023-03-04T16:18:21.581Z,99567.52
2023-03-04T16:20:51.156Z,99570.86
2023-03-04T16:23:23.257Z,99574.19
2023-03-04T16:25:53.994Z,99580.02
2023-03-04T16:28:22.396Z,99590.42
2023-03-04T16:30:50.577Z,99602.86
2023-03-04T16:33:18.645Z,99609.45
2023-03-04T16:35:47.416Z,99618.69
2023-03-04T16:38:33.245Z,99621.92
2023-03-04T16:41:02.202Z,99627.79
2023-03-04T16:43:30.381Z,99640.05
2023-03-04T16:45:58.640Z,99647.08
2023-03-04T16:48:26.669Z,99645.83
2023-03-04T16:50:57.365Z,99653.05
2023-03-04T16:53:28.043Z,99661.05
2023-03-04T16:55:58.431Z,99664.98
2023-03-04T16:58:26.458Z,99668.80
2023-03-04T17:00:55.044Z,99676.61
2023-03-04T17:03:23.017Z,99688.59
2023-03-04T17:05:51.109Z,99688.11
2023-03-04T17:08:18.979Z,99692.45
2023-03-04T17:10:48.979Z,99702.70
2023-03-04T17:13:16.913Z,99704.64
2023-03-04T17:15:46.921Z,99701.17
2023-03-04T17:18:14.917Z,99714.89
2023-03-04T17:20:42.979Z,99716.72
2023-03-04T17:23:11.104Z,99714.77
2023-03-04T17:25:39.148Z,99720.81
2023-03-04T17:28:07.109Z,99724.29
2023-03-04T17:30:35.098Z,99733.49
2023-03-04T17:33:03.199Z,99734.77
2023-03-04T17:35:31.113Z,99734.71
2023-03-04T17:37:59.048Z,99739.80
2023-03-04T17:40:27.013Z,99748.64
2023-03-04T17:42:55.567Z,99750.25
2023-03-04T17:45:23.612Z,99745.00
2023-03-04T17:47:52.609Z,99754.20
2023-03-04T17:50:21.385Z,99748.77
2023-03-04T17:52:49.243Z,99750.29
2023-03-04T17:55:17.192Z,99748.83
2023-03-04T17:57:45.040Z,99756.13
2023-03-04T18:00:13.667Z,99759.16
2023-03-04T18:02:41.496Z,99770.92
2023-03-04T18:05:11.544Z,99773.71
2023-03-04T18:07:39.534Z,99780.23
2023-03-04T18:10:07.871Z,99782.91
2023-03-04T18:12:35.877Z,99783.34
2023-03-04T18:15:04.049Z,99786.19
2023-03-04T18:17:32.187Z,99788.92
2023-03-04T18:20:01.740Z,99795.67
2023-03-04T18:22:31.747Z,99801.30
2023-03-04T18:24:59.831Z,99802.08
2023-03-04T18:27:28.041Z,99808.98
2023-03-04T18:29:56.803Z,99805.45
2023-03-04T18:32:25.319Z,99805.43
2023-03-04T18:34:54.764Z,99805.84
2023-03-04T18:37:22.741Z,99811.13
2023-03-04T18:39:50.846Z,99816.59
2023-03-04T18:42:18.812Z,99818.69
2023-03-04T18:44:46.866Z,99816.91
2023-03-04T18:47:14.795Z,99824.94
2023-03-04T18:49:45.790Z,99826.29
2023-03-04T18:52:14.656Z,99828.05
2023-03-04T18:54:42.609Z,99826.12
2023-03-04T18:57:13.776Z,99830.06
2023-03-04T18:59:49.287Z,99829.66
2023-03-04T19:04:36.911Z,99836.68
2023-03-04T19:07:04.932Z,99837.65
2023-03-04T19:09:32.830Z,99839.41
2023-03-04T19:12:03.027Z,99843.92
2023-03-04T19:14:31.136Z,99843.85
2023-03-04T19:16:59.124Z,99849.74
2023-03-04T19:19:27.186Z,99852.34
2023-03-04T19:21:55.347Z,99858.20
2023-03-04T19:24:24.323Z,99857.30
2023-03-04T19:26:53.269Z,99861.80
2023-03-04T19:29:21.260Z,99864.77
2023-03-04T19:31:49.372Z,99867.20
2023-03-04T19:34:18.480Z,99870.82
2023-03-04T19:36:46.440Z,99874.29
2023-03-04T19:39:15.747Z,99874.08
2023-03-04T19:41:44.238Z,99880.23
2023-03-04T19:44:12.249Z,99883.86
2023-03-04T19:46:40.542Z,99884.29
2023-03-04T19:49:10.252Z,99885.73
2023-03-04T19:51:38.418Z,99888.18
2023-03-04T19:54:06.449Z,99887.73
2023-03-04T19:56:34.387Z,99886.33
2023-03-04T19:59:02.590Z,99886.35
2023-03-04T20:01:33.482Z,99891.96
2023-03-04T20:04:06.324Z,99890.28
2023-03-04T20:06:40.225Z,99892.10
2023-03-04T20:09:08.469Z,99892.06
2023-03-04T20:11:44.206Z,99890.45
2023-03-04T20:14:16.219Z,99894.61
2023-03-04T20:16:44.171Z,99895.36
2023-03-04T20:19:12.294Z,99893.10
2023-03-04T20:21:40.487Z,99896.95
2023-03-04T20:24:08.600Z,99899.71
2023-03-04T20:26:39.508Z,99899.52
2023-03-04T20:29:07.832Z,99895.82
2023-03-04T20:31:39.392Z,99899.59
2023-03-04T20:34:08.768Z,99901.54
2023-03-04T20:36:38.645Z,99904.45
2023-03-04T20:39:26.890Z,99902.50
2023-03-04T20:41:59.404Z,99902.73
2023-03-04T20:44:28.347Z,99902.23
2023-03-04T20:46:56.779Z,99898.27
2023-03-04T20:49:27.333Z,99901.08
2023-03-04T20:52:00.690Z,99901.34
2023-03-04T20:54:30.621Z,99904.86
2023-03-04T20:56:59.868Z,99901.13
2023-03-04T20:59:28.137Z,99902.13
2023-03-04T21:01:56.502Z,99903.82
2023-03-04T21:04:24.709Z,99905.86
2023-03-04T21:06:53.661Z,99902.52
2023-03-04T21:09:23.060Z,99900.34
2023-03-04T21:11:51.559Z,99900.09
2023-03-04T21:14:23.105Z,99903.30
2023-03-04T21:16:54.512Z,99902.77
2023-03-04T21:19:25.818Z,99905.46
2023-03-04T21:21:55.344Z,99908.11
2023-03-04T21:24:26.370Z,99908.23
2023-03-04T21:26:54.246Z,99902.33
2023-03-04T21:29:24.820Z,99906.63
2023-03-04T21:32:09.685Z,99906.20
2023-03-04T21:34:49.292Z,99905.41
2023-03-04T21:37:17.793Z,99907.13
2023-03-04T21:42:18.756Z,99907.88
2023-03-04T21:44:50.149Z,99908.21
2023-03-04T21:47:20.798Z,99908.66
2023-03-04T21:49:49.030Z,99905.44
2023-03-04T21:52:18.612Z,99907.48
2023-03-04T21:54:47.735Z,99904.49
2023-03-04T21:57:15.971Z,99906.10
2023-03-04T21:59:44.366Z,99904.16
2023-03-04T22:02:18.075Z,99901.96
2023-03-04T22:05:06.422Z,99906.09
2023-03-04T22:07:34.828Z,99905.23
2023-03-04T22:10:07.223Z,99906.58
2023-03-04T22:12:35.242Z,99910.13
2023-03-04T22:15:03.325Z,99908.80
2023-03-04T22:17:33.781Z,99905.69
2023-03-04T22:20:02.715Z,99907.73
2023-03-04T22:22:31.119Z,99912.48
2023-03-04T22:25:00.277Z,99905.70
2023-03-04T22:27:28.197Z,99906.47
2023-03-04T22:29:56.181Z,99906.31
2023-03-04T22:32:24.193Z,99904.11
2023-03-04T22:34:52.170Z,99905.95
2023-03-04T22:37:20.054Z,99904.39
2023-03-04T22:39:48.824Z,99909.01
2023-03-04T22:42:16.637Z,99901.80
2023-03-04T22:44:45.050Z,99902.86
2023-03-04T22:47:13.125Z,99902.50
2023-03-04T22:49:41.646Z,99907.15
2023-03-04T22:52:09.611Z,99906.20
2023-03-04T22:54:37.469Z,99901.64
2023-03-04T22:57:05.479Z,99899.98
2023-03-04T22:59:33.424Z,99896.66
2023-03-04T23:02:01.677Z,99895.77
2023-03-04T23:04:30.119Z,99898.22
2023-03-04T23:06:58.232Z,99901.63
2023-03-04T23:09:26.289Z,99904.25
2023-03-04T23:11:55.615Z,99902.16
2023-03-04T23:14:23.589Z,99902.52
2023-03-04T23:16:51.695Z,99901.27
2023-03-04T23:19:19.697Z,99901.29
2023-03-04T23:21:47.781Z,99898.96
2023-03-04T23:24:15.769Z,99896.79
2023-03-04T23:26:43.899Z,99897.08
2023-03-04T23:29:15.102Z,99896.81
2023-03-04T23:31:44.319Z,99898.28
2023-03-04T23:34:13.783Z,99898.15
2023-03-04T23:36:42.324Z,99896.53
2023-03-04T23:39:12.832Z,99894.04
2023-03-04T23:41:40.911Z,99893.84
2023-03-04T23:44:12.567Z,99895.25
2023-03-04T23:46:41.268Z,99891.45
2023-03-04T23:49:13.153Z,99889.81
2023-03-04T23:51:41.259Z,99889.42
2023-03-04T23:54:09.291Z,99886.95
2023-03-04T23:56:37.269Z,99888.02
2023-03-04T23:59:07.676Z,99888.08
